Time;durP1;ratioP1;P1;durP2;ratioP2;P2;SDS_P1;SDS_P2;PMS_P1;PMS_P2;Temp;Humidity;BMP_temperature;BMP_pressure;BME280_temperature;BME280_humidity;BME280_pressure;Samples;Min_cycle;Max_cycle;Signal;HPM_P1;HPM_P2
2022/04/18 00:00:40;;;;;;;18.17;10.82;;;;;;;;;;5069603;28;20052;-84
2022/04/18 00:03:06;;;;;;;17.60;10.70;;;;;;;;;;5073754;28;20148;-84
2022/04/18 00:05:32;;;;;;;21.25;10.82;;;;;;;;;;5067897;28;20096;-83
2022/04/18 00:07:58;;;;;;;17.50;10.90;;;;;;;;;;5072176;28;20036;-83
2022/04/18 00:10:25;;;;;;;18.50;11.80;;;;;;;;;;5063499;28;20417;-83
2022/04/18 00:12:51;;;;;;;19.52;10.63;;;;;;;;;;5068106;28;20029;-84
2022/04/18 00:15:17;;;;;;;19.95;12.00;;;;;;;;;;5046351;28;20104;-84
2022/04/18 00:17:43;;;;;;;18.20;11.02;;;;;;;;;;5062019;28;20052;-84
2022/04/18 00:20:10;;;;;;;18.33;10.63;;;;;;;;;;5064761;28;20017;-83
2022/04/18 00:22:36;;;;;;;20.45;11.13;;;;;;;;;;5064155;28;20052;-83
2022/04/18 00:25:02;;;;;;;20.98;11.32;;;;;;;;;;5064175;28;20032;-83
2022/04/18 00:27:28;;;;;;;19.90;12.25;;;;;;;;;;5045765;28;20414;-83
2022/04/18 00:29:54;;;;;;;21.67;11.73;;;;;;;;;;5049117;28;20102;-83
2022/04/18 00:32:20;;;;;;;19.75;11.60;;;;;;;;;;5068207;28;20040;-84
2022/04/18 00:34:46;;;;;;;21.13;11.27;;;;;;;;;;5070691;28;20052;-84
2022/04/18 00:37:12;;;;;;;21.35;12.50;;;;;;;;;;5069110;28;20412;-84
2022/04/18 00:39:38;;;;;;;35.58;12.57;;;;;;;;;;5068935;28;20044;-83
2022/04/18 00:42:04;;;;;;;21.50;11.30;;;;;;;;;;5046335;28;20040;-83
2022/04/18 00:44:30;;;;;;;19.17;12.13;;;;;;;;;;5068223;28;20029;-83
2022/04/18 00:46:56;;;;;;;18.58;12.15;;;;;;;;;;5073582;28;20265;-83
2022/04/18 00:49:23;;;;;;;22.45;11.88;;;;;;;;;;5051680;28;20121;-83
2022/04/18 00:51:49;;;;;;;18.88;11.23;;;;;;;;;;5070613;28;20043;-83
2022/04/18 00:54:15;;;;;;;20.10;12.05;;;;;;;;;;5064480;28;20040;-83
2022/04/18 00:56:41;;;;;;;19.05;11.80;;;;;;;;;;5061231;28;20052;-85
2022/04/18 00:59:08;;;;;;;17.75;11.95;;;;;;;;;;5061472;28;20049;-84
2022/04/18 01:01:37;;;;;;;21.45;12.18;;;;;;;;;;5039773;28;20055;-85
2022/04/18 01:04:03;;;;;;;20.65;12.90;;;;;;;;;;5060747;28;20032;-83
2022/04/18 01:06:29;;;;;;;23.02;12.63;;;;;;;;;;5056721;28;20060;-84
2022/04/18 01:08:55;;;;;;;22.05;12.85;;;;;;;;;;5064341;28;20039;-85
2022/04/18 01:11:21;;;;;;;22.40;12.60;;;;;;;;;;5040853;28;20040;-84
2022/04/18 01:13:48;;;;;;;17.83;11.80;;;;;;;;;;5064741;28;20036;-86
2022/04/18 01:16:14;;;;;;;22.20;13.10;;;;;;;;;;5063524;28;20124;-83
2022/04/18 01:18:40;;;;;;;24.15;12.45;;;;;;;;;;5068933;28;20024;-84
2022/04/18 01:21:10;;;;;;;20.40;12.63;;;;;;;;;;5071887;28;20036;-82
2022/04/18 01:23:38;;;;;;;19.52;12.45;;;;;;;;;;5067179;28;20029;-84
2022/04/18 01:28:58;;;;;;;20.05;13.18;;;;;;;;;;5069904;28;20102;-85
2022/04/18 01:31:25;;;;;;;18.90;12.63;;;;;;;;;;5043706;28;20122;-84
2022/04/18 01:33:51;;;;;;;33.25;19.27;;;;;;;;;;5037456;28;20052;-82
2022/04/18 01:36:17;;;;;;;32.58;20.10;;;;;;;;;;5036845;28;20025;-82
2022/04/18 01:38:43;;;;;;;33.03;22.63;;;;;;;;;;5057872;28;20033;-82
2022/04/18 01:41:09;;;;;;;32.58;19.10;;;;;;;;;;5058241;28;20044;-84
2022/04/18 01:43:36;;;;;;;27.05;18.23;;;;;;;;;;5037296;28;20052;-82
2022/04/18 01:46:02;;;;;;;23.08;15.60;;;;;;;;;;5065750;28;20040;-82
2022/04/18 01:48:28;;;;;;;23.92;15.23;;;;;;;;;;5072434;28;20111;-82
2022/04/18 01:50:54;;;;;;;24.60;14.63;;;;;;;;;;5068117;28;20071;-81
2022/04/18 01:53:20;;;;;;;24.38;15.02;;;;;;;;;;5077795;28;20015;-82
2022/04/18 01:55:46;;;;;;;23.17;14.60;;;;;;;;;;5064283;28;20029;-82
2022/04/18 01:58:13;;;;;;;23.25;15.02;;;;;;;;;;5067860;28;20029;-82
2022/04/18 02:00:39;;;;;;;22.35;14.90;;;;;;;;;;5061923;28;20044;-83
2022/04/18 02:03:05;;;;;;;20.65;13.95;;;;;;;;;;5051686;28;20078;-82
2022/04/18 02:05:31;;;;;;;29.60;16.23;;;;;;;;;;5068020;28;20032;-82
2022/04/18 02:07:58;;;;;;;40.33;23.58;;;;;;;;;;5061062;28;20021;-82
2022/04/18 02:10:24;;;;;;;35.85;20.45;;;;;;;;;;5065539;28;20083;-82
2022/04/18 02:12:50;;;;;;;39.58;20.75;;;;;;;;;;5067404;28;20067;-83
2022/04/18 02:15:16;;;;;;;31.90;19.58;;;;;;;;;;5061348;28;20036;-82
2022/04/18 02:17:42;;;;;;;27.25;16.75;;;;;;;;;;5064113;28;20028;-83
2022/04/18 02:20:08;;;;;;;26.73;17.02;;;;;;;;;;5058403;28;20493;-84
2022/04/18 02:22:34;;;;;;;23.90;15.75;;;;;;;;;;5058438;28;20049;-83
2022/04/18 02:25:00;;;;;;;27.17;14.43;;;;;;;;;;5035556;28;20711;-82
2022/04/18 02:27:26;;;;;;;25.50;15.75;;;;;;;;;;5056340;28;20125;-82
2022/04/18 02:29:53;;;;;;;21.63;15.02;;;;;;;;;;5059273;28;20035;-84
2022/04/18 02:35:03;;;;;;;25.42;14.43;;;;;;;;;;5058171;28;20112;-82
2022/04/18 02:37:29;;;;;;;24.98;14.55;;;;;;;;;;5064885;28;20063;-84
2022/04/18 02:39:59;;;;;;;21.33;13.35;;;;;;;;;;5065209;28;20024;-85
2022/04/18 02:42:25;;;;;;;23.02;14.88;;;;;;;;;;5060872;28;20075;-82
2022/04/18 02:44:51;;;;;;;24.45;14.35;;;;;;;;;;5064575;28;20063;-84
2022/04/18 02:47:17;;;;;;;23.13;14.55;;;;;;;;;;5062997;28;20039;-83
2022/04/18 02:49:43;;;;;;;22.05;13.45;;;;;;;;;;5059348;28;20478;-84
2022/04/18 02:52:09;;;;;;;21.08;13.60;;;;;;;;;;5054045;28;20044;-81
2022/04/18 02:54:35;;;;;;;21.85;13.65;;;;;;;;;;5058050;28;20054;-82
2022/04/18 02:57:01;;;;;;;19.83;12.80;;;;;;;;;;5054442;28;20060;-83
2022/04/18 02:59:27;;;;;;;26.08;13.75;;;;;;;;;;5055707;28;20041;-81
2022/04/18 03:01:53;;;;;;;21.25;14.00;;;;;;;;;;5058981;28;20025;-83
2022/04/18 03:04:19;;;;;;;22.98;13.60;;;;;;;;;;5057288;28;20032;-84
2022/04/18 03:06:45;;;;;;;21.02;13.35;;;;;;;;;;5055809;28;20491;-84
2022/04/18 03:09:11;;;;;;;20.80;13.95;;;;;;;;;;5064928;28;20009;-81
2022/04/18 03:11:37;;;;;;;22.20;13.95;;;;;;;;;;5066044;28;20050;-83
2022/04/18 03:14:03;;;;;;;19.63;13.77;;;;;;;;;;5068650;28;20087;-83
2022/04/18 03:16:30;;;;;;;19.42;13.27;;;;;;;;;;5067303;28;20032;-83
2022/04/18 03:18:56;;;;;;;21.00;14.10;;;;;;;;;;5064189;28;20134;-84
2022/04/18 03:21:23;;;;;;;23.58;13.05;;;;;;;;;;5069897;28;20009;-84
2022/04/18 03:23:49;;;;;;;21.25;13.80;;;;;;;;;;5061038;28;20058;-82
2022/04/18 03:26:17;;;;;;;22.50;13.40;;;;;;;;;;5062890;28;20031;-84
2022/04/18 03:28:43;;;;;;;23.95;14.15;;;;;;;;;;5045370;28;20039;-84
2022/04/18 03:31:09;;;;;;;22.77;13.88;;;;;;;;;;5041066;28;20029;-84
2022/04/18 03:33:35;;;;;;;20.23;13.32;;;;;;;;;;5063108;28;20048;-83
2022/04/18 03:41:30;;;;;;;19.98;12.82;;;;;;;;;;5058953;28;20052;-82
2022/04/18 03:43:56;;;;;;;20.73;12.73;;;;;;;;;;5065234;28;20032;-86
2022/04/18 03:46:23;;;;;;;21.23;13.40;;;;;;;;;;5065658;28;20029;-82
2022/04/18 03:48:49;;;;;;;22.35;13.45;;;;;;;;;;5063269;28;20033;-84
2022/04/18 03:51:15;;;;;;;19.98;13.27;;;;;;;;;;5065741;28;20037;-82
2022/04/18 03:53:41;;;;;;;25.20;13.32;;;;;;;;;;5068954;28;20033;-82
2022/04/18 03:56:07;;;;;;;21.70;12.20;;;;;;;;;;5065527;28;20021;-83
2022/04/18 03:58:33;;;;;;;21.52;12.88;;;;;;;;;;5075862;28;20541;-83
2022/04/18 04:00:59;;;;;;;23.10;11.88;;;;;;;;;;5054642;28;20072;-82
2022/04/18 04:03:26;;;;;;;19.48;11.90;;;;;;;;;;5066934;28;20119;-83
2022/04/18 04:05:55;;;;;;;17.40;11.98;;;;;;;;;;5065325;28;20032;-83
2022/04/18 04:08:25;;;;;;;19.30;12.68;;;;;;;;;;5063746;28;20032;-83
2022/04/18 04:10:52;;;;;;;19.10;12.50;;;;;;;;;;5062989;28;20039;-83
2022/04/18 04:13:18;;;;;;;21.63;12.60;;;;;;;;;;5058937;28;20021;-84
2022/04/18 04:15:44;;;;;;;22.50;13.27;;;;;;;;;;5063142;28;20024;-83
2022/04/18 04:18:10;;;;;;;20.15;13.32;;;;;;;;;;5040203;28;20478;-84
2022/04/18 04:20:36;;;;;;;18.75;12.80;;;;;;;;;;5042802;28;20058;-83
2022/04/18 04:23:02;;;;;;;21.17;11.68;;;;;;;;;;5071046;28;20036;-82
2022/04/18 04:25:28;;;;;;;18.80;11.50;;;;;;;;;;5067884;28;20470;-81
2022/04/18 04:27:54;;;;;;;17.00;11.40;;;;;;;;;;5067059;28;20089;-82
2022/04/18 04:30:20;;;;;;;17.92;11.50;;;;;;;;;;5069223;28;20087;-81
2022/04/18 04:32:48;;;;;;;19.25;12.77;;;;;;;;;;5073948;28;20433;-82
2022/04/18 04:35:14;;;;;;;21.15;11.45;;;;;;;;;;5069181;28;20041;-82
2022/04/18 04:37:40;;;;;;;26.30;16.75;;;;;;;;;;5072957;28;20021;-82
2022/04/18 04:40:08;;;;;;;28.45;15.10;;;;;;;;;;5069774;28;20056;-83
2022/04/18 04:42:34;;;;;;;24.15;12.63;;;;;;;;;;5064947;28;20033;-83
2022/04/18 04:45:00;;;;;;;23.23;12.82;;;;;;;;;;5063171;28;20052;-82
2022/04/18 04:47:26;;;;;;;17.17;12.45;;;;;;;;;;5062619;28;20029;-83
2022/04/18 04:49:52;;;;;;;19.77;12.15;;;;;;;;;;5061195;28;20017;-82
2022/04/18 04:52:20;;;;;;;15.05;10.82;;;;;;;;;;5039450;28;20443;-83
2022/04/18 04:54:46;;;;;;;16.80;11.38;;;;;;;;;;5034985;28;20044;-82
2022/04/18 04:57:12;;;;;;;17.63;11.40;;;;;;;;;;5062581;28;20044;-82
2022/04/18 04:59:38;;;;;;;17.25;10.85;;;;;;;;;;5049263;28;20065;-82
2022/04/18 05:02:05;;;;;;;19.58;11.75;;;;;;;;;;5041862;28;20043;-82
2022/04/18 05:04:32;;;;;;;14.82;10.82;;;;;;;;;;5045565;28;20119;-81
2022/04/18 05:06:58;;;;;;;24.23;12.55;;;;;;;;;;5023545;28;20029;-83
2022/04/18 05:09:24;;;;;;;21.50;11.30;;;;;;;;;;5041115;28;20163;-82
2022/04/18 05:11:52;;;;;;;20.23;12.27;;;;;;;;;;5045272;28;20029;-81
2022/04/18 05:14:18;;;;;;;17.48;10.77;;;;;;;;;;5043427;28;20029;-84
2022/04/18 05:16:44;;;;;;;21.23;11.10;;;;;;;;;;5049596;28;20020;-84
2022/04/18 05:19:10;;;;;;;18.25;10.40;;;;;;;;;;5042694;28;20021;-84
2022/04/18 05:21:37;;;;;;;16.98;11.52;;;;;;;;;;5046838;28;20018;-82
2022/04/18 05:24:03;;;;;;;16.52;10.05;;;;;;;;;;5048600;28;20475;-83
2022/04/18 05:26:29;;;;;;;14.40;9.95;;;;;;;;;;5042976;28;20021;-82
2022/04/18 05:28:55;;;;;;;14.98;9.88;;;;;;;;;;5050342;28;20093;-82
2022/04/18 05:31:21;;;;;;;18.15;9.48;;;;;;;;;;5039141;28;20041;-84
2022/04/18 05:33:47;;;;;;;14.75;9.30;;;;;;;;;;5025112;28;20556;-84
2022/04/18 05:36:13;;;;;;;14.30;8.88;;;;;;;;;;5042376;28;20030;-84
2022/04/18 05:38:40;;;;;;;12.32;8.80;;;;;;;;;;5039120;28;20057;-84
2022/04/18 05:41:06;;;;;;;13.73;8.55;;;;;;;;;;5041241;28;20030;-85
2022/04/18 05:43:32;;;;;;;13.35;8.60;;;;;;;;;;5041991;28;20092;-84
2022/04/18 05:45:58;;;;;;;15.02;8.85;;;;;;;;;;5038194;28;20036;-83
2022/04/18 05:48:24;;;;;;;13.38;8.93;;;;;;;;;;5038933;28;20037;-83
2022/04/18 05:50:50;;;;;;;14.65;8.68;;;;;;;;;;5019580;28;20040;-83
2022/04/18 05:53:17;;;;;;;16.88;8.32;;;;;;;;;;5038689;28;20032;-83
2022/04/18 05:55:43;;;;;;;17.60;9.25;;;;;;;;;;5037086;28;20028;-82
2022/04/18 05:58:09;;;;;;;13.57;8.73;;;;;;;;;;5040356;28;20120;-83
2022/04/18 06:00:37;;;;;;;14.35;8.07;;;;;;;;;;5056557;28;20057;-85
2022/04/18 06:03:03;;;;;;;11.40;7.85;;;;;;;;;;5067586;28;20190;-82
2022/04/18 06:05:29;;;;;;;14.35;7.68;;;;;;;;;;5069786;28;20125;-83
2022/04/18 06:07:55;;;;;;;19.45;8.55;;;;;;;;;;5063797;28;20090;-82
2022/04/18 06:10:22;;;;;;;12.75;7.30;;;;;;;;;;5065821;28;20041;-82
2022/04/18 06:12:48;;;;;;;10.68;7.68;;;;;;;;;;5043965;28;20048;-81
2022/04/18 06:15:14;;;;;;;12.43;7.47;;;;;;;;;;5066767;28;20051;-81
2022/04/18 06:17:40;;;;;;;12.45;7.70;;;;;;;;;;5071167;28;20482;-81
2022/04/18 06:20:06;;;;;;;12.07;7.13;;;;;;;;;;5064570;28;20034;-82
2022/04/18 06:22:32;;;;;;;9.18;6.68;;;;;;;;;;5065607;28;20125;-83
2022/04/18 06:24:58;;;;;;;11.73;6.47;;;;;;;;;;5043108;28;20028;-83
2022/04/18 06:27:24;;;;;;;10.85;7.22;;;;;;;;;;5065480;28;20576;-83
2022/04/18 06:29:51;;;;;;;12.60;6.78;;;;;;;;;;5058211;28;20029;-82
2022/04/18 06:32:17;;;;;;;13.23;7.13;;;;;;;;;;5067834;28;20052;-83
2022/04/18 06:34:43;;;;;;;9.43;7.18;;;;;;;;;;5060488;28;20164;-83
2022/04/18 06:37:09;;;;;;;12.48;6.82;;;;;;;;;;5040234;28;20067;-82
2022/04/18 06:39:36;;;;;;;11.07;7.25;;;;;;;;;;5054285;28;20028;-88
2022/04/18 06:42:02;;;;;;;8.15;6.68;;;;;;;;;;5060391;28;20046;-81
2022/04/18 06:44:28;;;;;;;11.35;7.03;;;;;;;;;;5048110;28;20206;-80
2022/04/18 06:46:54;;;;;;;14.10;6.70;;;;;;;;;;5057330;28;20549;-81
2022/04/18 06:49:20;;;;;;;9.10;6.53;;;;;;;;;;5056985;28;20094;-86
2022/04/18 06:51:46;;;;;;;13.30;6.53;;;;;;;;;;5056334;28;20342;-83
2022/04/18 06:54:12;;;;;;;11.50;7.03;;;;;;;;;;5036622;28;20520;-81
2022/04/18 06:59:23;;;;;;;12.05;6.95;;;;;;;;;;5062257;28;20063;-83
2022/04/18 07:01:49;;;;;;;8.80;6.38;;;;;;;;;;5057362;28;20024;-84
2022/04/18 07:04:15;;;;;;;9.45;6.63;;;;;;;;;;5061169;28;20037;-81
2022/04/18 07:06:41;;;;;;;12.77;6.07;;;;;;;;;;5057314;28;20033;-82
2022/04/18 07:09:07;;;;;;;10.85;6.82;;;;;;;;;;5061905;28;20029;-80
2022/04/18 07:11:34;;;;;;;10.63;6.57;;;;;;;;;;5071164;28;20623;-80
2022/04/18 07:13:59;;;;;;;10.50;6.38;;;;;;;;;;5041325;28;20438;-81
2022/04/18 07:16:29;;;;;;;9.32;6.38;;;;;;;;;;5062524;28;20032;-80
2022/04/18 07:18:55;;;;;;;8.10;6.38;;;;;;;;;;5062493;28;20048;-80
2022/04/18 07:21:21;;;;;;;9.73;6.50;;;;;;;;;;5069538;28;20543;-80
2022/04/18 07:23:47;;;;;;;8.77;6.10;;;;;;;;;;5047226;28;20079;-83
2022/04/18 07:26:13;;;;;;;8.73;6.20;;;;;;;;;;5059566;28;20135;-82
2022/04/18 07:28:39;;;;;;;7.72;6.45;;;;;;;;;;5058845;28;20043;-83
2022/04/18 07:31:07;;;;;;;12.32;7.18;;;;;;;;;;5057230;28;20112;-85
2022/04/18 07:33:36;;;;;;;10.15;6.45;;;;;;;;;;5065654;28;20041;-82
2022/04/18 07:36:03;;;;;;;10.70;6.45;;;;;;;;;;5056932;28;20478;-82
2022/04/18 07:41:14;;;;;;;8.20;6.00;;;;;;;;;;5054540;28;20047;-82
2022/04/18 07:43:41;;;;;;;7.65;5.63;;;;;;;;;;5036759;28;20029;-84
2022/04/18 07:46:07;;;;;;;9.43;6.30;;;;;;;;;;5058590;28;20028;-80
2022/04/18 07:48:33;;;;;;;7.47;5.50;;;;;;;;;;5057918;28;20086;-82
2022/04/18 07:53:44;;;;;;;8.77;5.60;;;;;;;;;;5073095;28;20079;-82
2022/04/18 07:56:10;;;;;;;8.15;5.55;;;;;;;;;;5077855;28;20004;-82
2022/04/18 07:58:36;;;;;;;7.03;5.45;;;;;;;;;;5078506;28;20115;-81
2022/04/18 08:01:02;;;;;;;10.82;6.10;;;;;;;;;;5076459;28;20041;-82
2022/04/18 08:03:28;;;;;;;8.75;6.00;;;;;;;;;;5081970;28;20121;-82
2022/04/18 08:05:57;;;;;;;6.93;4.97;;;;;;;;;;5080648;28;20467;-82
2022/04/18 08:08:23;;;;;;;13.85;4.97;;;;;;;;;;5065549;28;20059;-82
2022/04/18 08:10:49;;;;;;;8.73;5.10;;;;;;;;;;5061693;28;20037;-82
2022/04/18 08:13:16;;;;;;;7.45;4.70;;;;;;;;;;5061020;28;20072;-82
2022/04/18 08:15:42;;;;;;;8.40;4.63;;;;;;;;;;5061520;28;20021;-81
2022/04/18 08:18:08;;;;;;;8.57;5.10;;;;;;;;;;5057200;28;20025;-82
2022/04/18 08:20:34;;;;;;;8.05;5.30;;;;;;;;;;5057424;28;20563;-81
2022/04/18 08:23:00;;;;;;;7.30;4.82;;;;;;;;;;5056367;28;20021;-82
2022/04/18 08:25:26;;;;;;;6.28;4.88;;;;;;;;;;5063441;28;20043;-83
2022/04/18 08:27:52;;;;;;;9.77;5.28;;;;;;;;;;5069068;28;20029;-82
2022/04/18 08:30:18;;;;;;;7.60;5.00;;;;;;;;;;5059723;28;20433;-82
2022/04/18 08:32:44;;;;;;;9.48;5.18;;;;;;;;;;5062848;28;20098;-82
2022/04/18 08:35:11;;;;;;;9.70;5.28;;;;;;;;;;5052869;28;20025;-82
2022/04/18 08:37:37;;;;;;;17.90;5.82;;;;;;;;;;5053082;28;20025;-83
2022/04/18 08:40:04;;;;;;;8.57;5.13;;;;;;;;;;5053191;28;20033;-82
2022/04/18 08:42:34;;;;;;;5.90;5.03;;;;;;;;;;5055894;28;20022;-83
2022/04/18 08:45:01;;;;;;;4.53;3.63;;;;;;;;;;5067526;28;20023;-81
2022/04/18 08:52:57;;;;;;;14.27;3.40;;;;;;;;;;5079718;28;20393;-82
2022/04/18 08:55:23;;;;;;;6.07;3.60;;;;;;;;;;5064516;28;20025;-84
2022/04/18 08:57:49;;;;;;;7.45;3.30;;;;;;;;;;5082575;28;20050;-81
2022/04/18 09:00:15;;;;;;;7.03;3.38;;;;;;;;;;5079435;28;20148;-82
2022/04/18 09:02:41;;;;;;;7.32;3.80;;;;;;;;;;5077771;28;20409;-82
2022/04/18 09:05:11;;;;;;;6.40;3.85;;;;;;;;;;5079177;28;20111;-82
2022/04/18 09:07:37;;;;;;;8.27;3.90;;;;;;;;;;5059245;28;20059;-80
2022/04/18 09:10:03;;;;;;;7.22;4.07;;;;;;;;;;5078523;28;20055;-82
2022/04/18 09:12:31;;;;;;;5.38;3.33;;;;;;;;;;5076770;28;20036;-82
2022/04/18 09:14:57;;;;;;;8.40;3.45;;;;;;;;;;5073522;28;20123;-83
2022/04/18 09:17:29;;;;;;;7.50;4.40;;;;;;;;;;5075725;28;20481;-83
2022/04/18 09:20:09;;;;;;;5.00;3.60;;;;;;;;;;5074137;28;20027;-80
2022/04/18 09:22:45;;;;;;;7.03;3.85;;;;;;;;;;5072553;28;20028;-82
2022/04/18 09:25:19;;;;;;;8.73;3.40;;;;;;;;;;5061209;28;20522;-81
2022/04/18 09:27:58;;;;;;;6.43;3.38;;;;;;;;;;5052738;28;20045;-83
2022/04/18 09:30:25;;;;;;;3.63;2.78;;;;;;;;;;5052657;28;20579;-82
2022/04/18 09:33:04;;;;;;;4.80;2.88;;;;;;;;;;5052246;28;20021;-83
2022/04/18 09:35:30;;;;;;;6.20;3.60;;;;;;;;;;5052512;28;20017;-84
2022/04/18 09:38:00;;;;;;;5.70;3.20;;;;;;;;;;5068212;28;20477;-84
2022/04/18 09:40:27;;;;;;;4.93;3.25;;;;;;;;;;5074203;28;20025;-81
2022/04/18 09:42:53;;;;;;;4.53;2.95;;;;;;;;;;5077854;28;20039;-83
2022/04/18 09:45:20;;;;;;;6.75;3.58;;;;;;;;;;5078224;28;20127;-82
2022/04/18 09:47:53;;;;;;;7.25;3.60;;;;;;;;;;5078704;28;20036;-82
2022/04/18 09:53:05;;;;;;;5.63;2.97;;;;;;;;;;5081135;28;20047;-81
2022/04/18 09:55:31;;;;;;;6.65;3.40;;;;;;;;;;5078578;28;20025;-82
2022/04/18 09:58:03;;;;;;;6.47;3.33;;;;;;;;;;5056100;28;20039;-84
2022/04/18 10:00:29;;;;;;;6.18;3.05;;;;;;;;;;5059177;28;20055;-84
2022/04/18 10:02:57;;;;;;;7.25;3.50;;;;;;;;;;5058173;28;20052;-84
2022/04/18 10:05:23;;;;;;;7.22;3.10;;;;;;;;;;5059637;28;20078;-83
2022/04/18 10:07:50;;;;;;;4.53;2.90;;;;;;;;;;5060016;28;20046;-82
2022/04/18 10:10:16;;;;;;;7.05;3.30;;;;;;;;;;5055865;28;20170;-83
2022/04/18 10:12:42;;;;;;;4.60;3.10;;;;;;;;;;5037740;28;20068;-83
2022/04/18 10:15:08;;;;;;;5.95;3.40;;;;;;;;;;5037720;28;20037;-84
2022/04/18 10:17:36;;;;;;;6.47;3.28;;;;;;;;;;5051541;28;20512;-84
2022/04/18 10:20:05;;;;;;;4.65;3.30;;;;;;;;;;5050632;28;20028;-83
2022/04/18 10:22:52;;;;;;;5.85;3.28;;;;;;;;;;5050870;28;20070;-85
2022/04/18 10:25:26;;;;;;;6.97;3.55;;;;;;;;;;5053677;28;20032;-83
2022/04/18 10:28:01;;;;;;;7.60;3.55;;;;;;;;;;5070451;28;20021;-84
2022/04/18 10:30:27;;;;;;;4.00;2.92;;;;;;;;;;5070513;28;20036;-83
2022/04/18 10:32:54;;;;;;;4.22;3.00;;;;;;;;;;5070328;28;20108;-81
2022/04/18 10:35:22;;;;;;;4.03;3.10;;;;;;;;;;5052940;28;20133;-81
2022/04/18 10:37:52;;;;;;;5.75;3.28;;;;;;;;;;5052488;28;20029;-83
2022/04/18 10:40:20;;;;;;;6.55;3.38;;;;;;;;;;5053880;28;20490;-82
2022/04/18 10:42:46;;;;;;;5.68;3.22;;;;;;;;;;5055858;28;20040;-82
2022/04/18 10:45:14;;;;;;;5.20;3.28;;;;;;;;;;5070378;28;20032;-83
2022/04/18 10:48:03;;;;;;;4.00;2.75;;;;;;;;;;5077174;28;20392;-82
2022/04/18 10:50:33;;;;;;;5.13;3.15;;;;;;;;;;5063991;28;20040;-82
2022/04/18 10:53:25;;;;;;;4.70;3.17;;;;;;;;;;5077990;28;20021;-83
2022/04/18 10:55:54;;;;;;;5.10;3.35;;;;;;;;;;5038761;28;20293;-83
2022/04/18 10:58:24;;;;;;;8.45;3.92;;;;;;;;;;5080229;28;20088;-81
2022/04/18 11:00:51;;;;;;;8.65;3.35;;;;;;;;;;5078428;28;20040;-83
2022/04/18 11:03:36;;;;;;;5.70;3.35;;;;;;;;;;5057776;28;20379;-83
2022/04/18 11:06:22;;;;;;;3.50;2.30;;;;;;;;;;5057060;28;20021;-82
2022/04/18 11:08:59;;;;;;;6.07;2.45;;;;;;;;;;5043695;28;20043;-82
2022/04/18 11:11:25;;;;;;;7.03;2.70;;;;;;;;;;5051716;28;20041;-83
2022/04/18 11:13:51;;;;;;;3.80;2.35;;;;;;;;;;5052421;28;20040;-82
2022/04/18 11:16:23;;;;;;;3.72;2.20;;;;;;;;;;5058125;28;20029;-81
2022/04/18 11:19:18;;;;;;;4.22;3.22;;;;;;;;;;5050660;28;20029;-81
2022/04/18 11:21:57;;;;;;;4.75;2.67;;;;;;;;;;5037848;28;20099;-82
2022/04/18 11:24:39;;;;;;;4.53;2.58;;;;;;;;;;5053067;28;20107;-84
2022/04/18 11:27:10;;;;;;;5.25;2.88;;;;;;;;;;5070873;28;20393;-84
2022/04/18 11:29:36;;;;;;;8.90;2.50;;;;;;;;;;5069732;28;20397;-82
2022/04/18 11:32:03;;;;;;;2.95;2.10;;;;;;;;;;5070621;28;20052;-82
2022/04/18 11:34:30;;;;;;;4.60;1.85;;;;;;;;;;5070546;28;20496;-83
2022/04/18 11:36:56;;;;;;;5.38;2.38;;;;;;;;;;5072006;28;20013;-82
2022/04/18 11:39:23;;;;;;;3.90;2.50;;;;;;;;;;5078137;28;20034;-82
2022/04/18 11:41:49;;;;;;;3.60;2.08;;;;;;;;;;5078250;28;20021;-82
2022/04/18 11:44:22;;;;;;;4.55;2.53;;;;;;;;;;5075047;28;20318;-80
2022/04/18 11:46:48;;;;;;;4.68;2.72;;;;;;;;;;5083565;28;20020;-83
2022/04/18 11:49:14;;;;;;;6.25;3.03;;;;;;;;;;5079937;28;20120;-83
2022/04/18 11:51:41;;;;;;;4.00;2.50;;;;;;;;;;5080359;28;20064;-84
2022/04/18 11:54:07;;;;;;;5.53;2.70;;;;;;;;;;5078154;28;20054;-83
2022/04/18 11:56:33;;;;;;;7.80;3.00;;;;;;;;;;5060918;28;20028;-83
2022/04/18 11:59:05;;;;;;;4.00;2.97;;;;;;;;;;5078169;28;20032;-83
2022/04/18 12:07:01;;;;;;;6.95;3.30;;;;;;;;;;5065711;28;20063;-85
2022/04/18 12:09:27;;;;;;;3.83;2.40;;;;;;;;;;5071643;28;20033;-84
2022/04/18 12:11:54;;;;;;;6.03;2.28;;;;;;;;;;5061075;28;20482;-85
2022/04/18 12:14:20;;;;;;;3.92;2.42;;;;;;;;;;5059168;28;20402;-83
2022/04/18 12:16:47;;;;;;;4.07;2.88;;;;;;;;;;5073943;28;20039;-85
2022/04/18 12:19:15;;;;;;;6.57;2.95;;;;;;;;;;5059664;28;20128;-84
2022/04/18 12:21:49;;;;;;;4.28;2.75;;;;;;;;;;5074779;28;20025;-83
2022/04/18 12:24:15;;;;;;;5.25;3.10;;;;;;;;;;5075190;28;20029;-82
2022/04/18 12:26:41;;;;;;;5.32;3.13;;;;;;;;;;5059094;28;20331;-83
2022/04/18 12:29:11;;;;;;;3.90;2.60;;;;;;;;;;5053299;28;20033;-83
2022/04/18 12:31:41;;;;;;;6.95;2.67;;;;;;;;;;5053328;28;20120;-83
2022/04/18 12:34:07;;;;;;;4.53;2.40;;;;;;;;;;5035357;28;20486;-84
2022/04/18 12:36:35;;;;;;;4.97;2.78;;;;;;;;;;5053275;28;20039;-82
2022/04/18 12:39:01;;;;;;;2.88;1.88;;;;;;;;;;5053056;28;20119;-84
2022/04/18 12:41:32;;;;;;;5.35;2.40;;;;;;;;;;5034922;28;20394;-85
2022/04/18 12:43:58;;;;;;;3.15;2.30;;;;;;;;;;5054404;28;20155;-83
2022/04/18 12:46:25;;;;;;;5.22;2.17;;;;;;;;;;5056815;28;20029;-85
2022/04/18 12:48:52;;;;;;;5.97;2.30;;;;;;;;;;5055212;28;20128;-86
2022/04/18 12:51:29;;;;;;;8.55;2.40;;;;;;;;;;5058229;28;20049;-83
2022/04/18 12:53:55;;;;;;;4.10;2.22;;;;;;;;;;5060091;28;20036;-84
2022/04/18 12:56:23;;;;;;;3.47;2.33;;;;;;;;;;5041871;28;20032;-82
2022/04/18 12:58:55;;;;;;;4.97;2.53;;;;;;;;;;5059657;28;20755;-83
2022/04/18 13:01:25;;;;;;;3.75;2.30;;;;;;;;;;5062429;28;20029;-82
2022/04/18 13:03:52;;;;;;;3.53;2.40;;;;;;;;;;5072366;28;20029;-85
2022/04/18 13:06:28;;;;;;;4.47;2.72;;;;;;;;;;5079382;28;20490;-84
2022/04/18 13:09:12;;;;;;;4.68;3.40;;;;;;;;;;5062151;28;20011;-84
2022/04/18 13:11:43;;;;;;;4.55;2.78;;;;;;;;;;5081021;28;20036;-85
2022/04/18 13:14:10;;;;;;;;;;;;;;;;;;5081245;28;20123;-84
2022/04/18 13:16:36;;;;;;;4.97;2.28;;;;;;;;;;5078286;28;19926;-85
2022/04/18 13:19:06;;;;;;;5.50;2.58;;;;;;;;;;5076019;28;20091;-85
2022/04/18 13:21:32;;;;;;;4.50;2.60;;;;;;;;;;5057731;28;20036;-84
2022/04/18 13:24:00;;;;;;;4.00;2.80;;;;;;;;;;5065328;28;20033;-85
2022/04/18 13:26:29;;;;;;;4.70;2.33;;;;;;;;;;5054667;28;20031;-84
2022/04/18 13:28:55;;;;;;;3.05;1.73;;;;;;;;;;5057225;28;20028;-84
2022/04/18 13:31:21;;;;;;;2.40;1.77;;;;;;;;;;5052500;28;20043;-83
2022/04/18 13:33:47;;;;;;;4.90;2.50;;;;;;;;;;5060779;28;20389;-83
2022/04/18 13:38:58;;;;;;;3.95;2.60;;;;;;;;;;5064616;28;20039;-84
2022/04/18 13:41:24;;;;;;;4.85;3.00;;;;;;;;;;5054946;28;20040;-83
2022/04/18 13:43:51;;;;;;;3.42;2.75;;;;;;;;;;5060624;28;20115;-83
2022/04/18 13:46:18;;;;;;;7.88;3.15;;;;;;;;;;5044275;28;20021;-80
2022/04/18 13:48:48;;;;;;;6.13;3.10;;;;;;;;;;5057863;28;20422;-83
2022/04/18 13:51:15;;;;;;;3.55;2.60;;;;;;;;;;5059593;28;20048;-82
2022/04/18 13:53:41;;;;;;;4.00;2.53;;;;;;;;;;5079071;28;20141;-83
2022/04/18 13:56:07;;;;;;;6.35;2.80;;;;;;;;;;5067993;28;20079;-83
2022/04/18 13:58:33;;;;;;;5.05;2.88;;;;;;;;;;5062800;28;20034;-85
2022/04/18 14:00:59;;;;;;;3.58;3.08;;;;;;;;;;5062289;28;20045;-83
2022/04/18 14:03:26;;;;;;;5.70;3.30;;;;;;;;;;5060253;28;20117;-85
2022/04/18 14:05:53;;;;;;;7.38;3.72;;;;;;;;;;5062575;28;20024;-84
2022/04/18 14:08:19;;;;;;;7.22;3.35;;;;;;;;;;5059869;28;20729;-85
2022/04/18 14:10:45;;;;;;;5.47;3.05;;;;;;;;;;5049919;28;20033;-84
2022/04/18 14:13:11;;;;;;;11.70;4.22;;;;;;;;;;5061713;28;20458;-85
2022/04/18 14:21:07;;;;;;;7.60;3.45;;;;;;;;;;5057347;28;20067;-85
2022/04/18 14:23:33;;;;;;;5.15;3.63;;;;;;;;;;5054035;28;20175;-83
2022/04/18 14:25:59;;;;;;;5.07;3.35;;;;;;;;;;5056195;28;20115;-84
2022/04/18 14:28:25;;;;;;;5.47;3.88;;;;;;;;;;5045816;28;20516;-84
2022/04/18 14:30:51;;;;;;;4.57;3.55;;;;;;;;;;5053984;28;20059;-85
2022/04/18 14:33:17;;;;;;;8.25;3.70;;;;;;;;;;5058100;28;20068;-83
2022/04/18 14:35:44;;;;;;;6.55;4.20;;;;;;;;;;5058847;28;20043;-85
2022/04/18 14:38:10;;;;;;;6.63;3.80;;;;;;;;;;5064746;28;20039;-83
2022/04/18 14:40:36;;;;;;;5.13;3.85;;;;;;;;;;5070510;28;20374;-84
2022/04/18 14:43:05;;;;;;;5.43;3.92;;;;;;;;;;5061893;28;20120;-83
2022/04/18 14:45:31;;;;;;;5.43;3.92;;;;;;;;;;5070950;28;20044;-84
2022/04/18 14:47:57;;;;;;;4.20;3.80;;;;;;;;;;5059842;28;20041;-84
2022/04/18 14:50:23;;;;;;;5.95;4.00;;;;;;;;;;5063646;28;20012;-84
2022/04/18 14:52:49;;;;;;;6.25;3.92;;;;;;;;;;5063041;28;20537;-86
2022/04/18 14:55:15;;;;;;;4.40;3.50;;;;;;;;;;5061749;28;20126;-84
2022/04/18 14:57:41;;;;;;;5.18;3.33;;;;;;;;;;5050946;28;20067;-82
2022/04/18 15:00:07;;;;;;;4.70;3.50;;;;;;;;;;5067102;28;20044;-85
2022/04/18 15:02:33;;;;;;;4.75;3.60;;;;;;;;;;5044633;28;20029;-83
2022/04/18 15:05:01;;;;;;;6.63;4.20;;;;;;;;;;5063125;28;20071;-84
2022/04/18 15:07:27;;;;;;;7.20;4.20;;;;;;;;;;5063852;28;20111;-83
2022/04/18 15:09:53;;;;;;;5.18;3.60;;;;;;;;;;5065174;28;20171;-84
2022/04/18 15:12:19;;;;;;;5.00;4.00;;;;;;;;;;5059703;28;20029;-82